sensor_id;sensor_type;location;lat;lon;timestamp;P1;P2;P0
31330;PMS5003;34067;39.548;-76.088;2023-05-07T00:00:41;3;3;
31330;PMS5003;34067;39.548;-76.088;2023-05-07T00:03:09;5;4;
31330;PMS5003;34067;39.548;-76.088;2023-05-07T00:05:37;3;3;
31330;PMS5003;34067;39.548;-76.088;2023-05-07T00:08:05;3;3;
31330;PMS5003;34067;39.548;-76.088;2023-05-07T00:10:33;4;4;
31330;PMS5003;34067;39.548;-76.088;2023-05-07T00:13:02;2;2;
31330;PMS5003;34067;39.548;-76.088;2023-05-07T00:15:29;4;4;
31330;PMS5003;34067;39.548;-76.088;2023-05-07T00:17:57;5;5;
31330;PMS5003;34067;39.548;-76.088;2023-05-07T00:20:25;3;3;
31330;PMS5003;34067;39.548;-76.088;2023-05-07T00:22:54;5;5;
31330;PMS5003;34067;39.548;-76.088;2023-05-07T00:25:22;4;4;
31330;PMS5003;34067;39.548;-76.088;2023-05-07T00:27:50;4;4;
31330;PMS5003;34067;39.548;-76.088;2023-05-07T00:30:19;4;4;
31330;PMS5003;34067;39.548;-76.088;2023-05-07T00:32:47;4;4;
31330;PMS5003;34067;39.548;-76.088;2023-05-07T00:35:15;4;3;
31330;PMS5003;34067;39.548;-76.088;2023-05-07T00:37:43;5;5;
31330;PMS5003;34067;39.548;-76.088;2023-05-07T00:40:11;5;5;
31330;PMS5003;34067;39.548;-76.088;2023-05-07T00:42:39;5;5;
31330;PMS5003;34067;39.548;-76.088;2023-05-07T00:45:07;6;5;
31330;PMS5003;34067;39.548;-76.088;2023-05-07T00:47:36;4;4;
31330;PMS5003;34067;39.548;-76.088;2023-05-07T00:50:04;4;4;
31330;PMS5003;34067;39.548;-76.088;2023-05-07T00:52:32;6;6;
31330;PMS5003;34067;39.548;-76.088;2023-05-07T00:55:01;5;5;
31330;PMS5003;34067;39.548;-76.088;2023-05-07T00:57:33;5;5;
31330;PMS5003;34067;39.548;-76.088;2023-05-07T01:00:06;6;5;
31330;PMS5003;34067;39.548;-76.088;2023-05-07T01:02:35;2;2;
31330;PMS5003;34067;39.548;-76.088;2023-05-07T01:05:04;3;3;
31330;PMS5003;34067;39.548;-76.088;2023-05-07T01:07:34;4;4;
31330;PMS5003;34067;39.548;-76.088;2023-05-07T01:10:04;7;7;
31330;PMS5003;34067;39.548;-76.088;2023-05-07T01:12:33;10;9;
31330;PMS5003;34067;39.548;-76.088;2023-05-07T01:15:02;7;7;
31330;PMS5003;34067;39.548;-76.088;2023-05-07T01:17:33;7;7;
31330;PMS5003;34067;39.548;-76.088;2023-05-07T01:20:01;8;8;
31330;PMS5003;34067;39.548;-76.088;2023-05-07T01:22:30;9;9;
31330;PMS5003;34067;39.548;-76.088;2023-05-07T01:24:59;9;9;
31330;PMS5003;34067;39.548;-76.088;2023-05-07T01:27:28;7;7;
31330;PMS5003;34067;39.548;-76.088;2023-05-07T01:29:56;7;7;
31330;PMS5003;34067;39.548;-76.088;2023-05-07T01:32:25;6;6;
31330;PMS5003;34067;39.548;-76.088;2023-05-07T01:35:00;7;6;
31330;PMS5003;34067;39.548;-76.088;2023-05-07T01:37:29;6;5;
31330;PMS5003;34067;39.548;-76.088;2023-05-07T01:39:57;8;8;
31330;PMS5003;34067;39.548;-76.088;2023-05-07T01:42:26;8;8;
31330;PMS5003;34067;39.548;-76.088;2023-05-07T01:44:55;6;5;
31330;PMS5003;34067;39.548;-76.088;2023-05-07T01:47:23;9;8;
31330;PMS5003;34067;39.548;-76.088;2023-05-07T01:49:52;7;6;
31330;PMS5003;34067;39.548;-76.088;2023-05-07T01:52:21;8;6;
31330;PMS5003;34067;39.548;-76.088;2023-05-07T01:54:49;7;6;
31330;PMS5003;34067;39.548;-76.088;2023-05-07T01:57:17;6;6;
31330;PMS5003;34067;39.548;-76.088;2023-05-07T01:59:45;4;4;
31330;PMS5003;34067;39.548;-76.088;2023-05-07T02:02:13;5;5;
31330;PMS5003;34067;39.548;-76.088;2023-05-07T02:04:41;5;5;
31330;PMS5003;34067;39.548;-76.088;2023-05-07T02:07:09;5;5;
31330;PMS5003;34067;39.548;-76.088;2023-05-07T02:09:37;5;5;
31330;PMS5003;34067;39.548;-76.088;2023-05-07T02:12:06;5;5;
31330;PMS5003;34067;39.548;-76.088;2023-05-07T02:14:34;5;5;
31330;PMS5003;34067;39.548;-76.088;2023-05-07T02:17:02;6;5;
31330;PMS5003;34067;39.548;-76.088;2023-05-07T02:19:30;10;9;
31330;PMS5003;34067;39.548;-76.088;2023-05-07T02:21:58;10;10;
31330;PMS5003;34067;39.548;-76.088;2023-05-07T02:24:26;8;8;
31330;PMS5003;34067;39.548;-76.088;2023-05-07T02:26:54;6;6;
31330;PMS5003;34067;39.548;-76.088;2023-05-07T02:29:22;9;8;
31330;PMS5003;34067;39.548;-76.088;2023-05-07T02:31:50;6;6;
31330;PMS5003;34067;39.548;-76.088;2023-05-07T02:34:18;8;8;
31330;PMS5003;34067;39.548;-76.088;2023-05-07T02:36:46;7;6;
31330;PMS5003;34067;39.548;-76.088;2023-05-07T02:39:14;6;6;
31330;PMS5003;34067;39.548;-76.088;2023-05-07T02:41:42;7;7;
31330;PMS5003;34067;39.548;-76.088;2023-05-07T02:44:10;6;6;
31330;PMS5003;34067;39.548;-76.088;2023-05-07T02:46:38;7;7;
31330;PMS5003;34067;39.548;-76.088;2023-05-07T02:49:07;8;7;
31330;PMS5003;34067;39.548;-76.088;2023-05-07T02:51:35;9;9;
31330;PMS5003;34067;39.548;-76.088;2023-05-07T02:54:02;12;12;
31330;PMS5003;34067;39.548;-76.088;2023-05-07T02:56:30;13;13;
31330;PMS5003;34067;39.548;-76.088;2023-05-07T02:58:59;16;15;
31330;PMS5003;34067;39.548;-76.088;2023-05-07T03:01:27;20;20;
31330;PMS5003;34067;39.548;-76.088;2023-05-07T03:03:55;28;27;
31330;PMS5003;34067;39.548;-76.088;2023-05-07T03:06:23;34;34;
31330;PMS5003;34067;39.548;-76.088;2023-05-07T03:08:51;27;26;
31330;PMS5003;34067;39.548;-76.088;2023-05-07T03:11:19;72;71;
31330;PMS5003;34067;39.548;-76.088;2023-05-07T03:13:47;19;18;
31330;PMS5003;34067;39.548;-76.088;2023-05-07T03:16:15;31;31;
31330;PMS5003;34067;39.548;-76.088;2023-05-07T03:18:44;11;10;
31330;PMS5003;34067;39.548;-76.088;2023-05-07T03:21:11;23;23;
31330;PMS5003;34067;39.548;-76.088;2023-05-07T03:23:39;91;91;
31330;PMS5003;34067;39.548;-76.088;2023-05-07T03:26:07;73;73;
31330;PMS5003;34067;39.548;-76.088;2023-05-07T03:28:34;18;18;
31330;PMS5003;34067;39.548;-76.088;2023-05-07T03:31:02;20;19;
31330;PMS5003;34067;39.548;-76.088;2023-05-07T03:33:32;37;37;
31330;PMS5003;34067;39.548;-76.088;2023-05-07T03:36:00;55;55;
31330;PMS5003;34067;39.548;-76.088;2023-05-07T03:38:28;60;60;
31330;PMS5003;34067;39.548;-76.088;2023-05-07T03:40:56;42;40;
31330;PMS5003;34067;39.548;-76.088;2023-05-07T03:43:24;47;47;
31330;PMS5003;34067;39.548;-76.088;2023-05-07T03:45:52;52;52;
31330;PMS5003;34067;39.548;-76.088;2023-05-07T03:48:20;45;45;
31330;PMS5003;34067;39.548;-76.088;2023-05-07T03:50:48;30;29;
31330;PMS5003;34067;39.548;-76.088;2023-05-07T03:53:16;42;41;
31330;PMS5003;34067;39.548;-76.088;2023-05-07T03:55:43;23;23;
31330;PMS5003;34067;39.548;-76.088;2023-05-07T03:58:11;13;12;
31330;PMS5003;34067;39.548;-76.088;2023-05-07T04:00:39;22;22;
31330;PMS5003;34067;39.548;-76.088;2023-05-07T04:03:07;25;24;
31330;PMS5003;34067;39.548;-76.088;2023-05-07T04:05:35;23;23;
31330;PMS5003;34067;39.548;-76.088;2023-05-07T04:08:03;33;33;
31330;PMS5003;34067;39.548;-76.088;2023-05-07T04:10:31;31;30;
31330;PMS5003;34067;39.548;-76.088;2023-05-07T04:12:59;54;53;
31330;PMS5003;34067;39.548;-76.088;2023-05-07T04:15:26;36;36;
31330;PMS5003;34067;39.548;-76.088;2023-05-07T04:17:54;31;29;
31330;PMS5003;34067;39.548;-76.088;2023-05-07T04:20:22;33;32;
31330;PMS5003;34067;39.548;-76.088;2023-05-07T04:22:51;33;33;
31330;PMS5003;34067;39.548;-76.088;2023-05-07T04:25:18;41;41;
31330;PMS5003;34067;39.548;-76.088;2023-05-07T04:27:46;48;48;
31330;PMS5003;34067;39.548;-76.088;2023-05-07T04:30:14;37;37;
31330;PMS5003;34067;39.548;-76.088;2023-05-07T04:32:41;35;35;
31330;PMS5003;34067;39.548;-76.088;2023-05-07T04:35:10;33;33;
31330;PMS5003;34067;39.548;-76.088;2023-05-07T04:37:38;10;10;
31330;PMS5003;34067;39.548;-76.088;2023-05-07T04:40:06;9;9;
31330;PMS5003;34067;39.548;-76.088;2023-05-07T04:42:35;7;7;
31330;PMS5003;34067;39.548;-76.088;2023-05-07T04:45:04;9;9;
31330;PMS5003;34067;39.548;-76.088;2023-05-07T04:47:32;11;10;
31330;PMS5003;34067;39.548;-76.088;2023-05-07T04:50:00;10;10;
31330;PMS5003;34067;39.548;-76.088;2023-05-07T04:52:28;10;10;
31330;PMS5003;34067;39.548;-76.088;2023-05-07T04:54:58;10;10;
31330;PMS5003;34067;39.548;-76.088;2023-05-07T04:57:27;11;11;
31330;PMS5003;34067;39.548;-76.088;2023-05-07T04:59:55;10;10;
31330;PMS5003;34067;39.548;-76.088;2023-05-07T05:03:10;11;11;
31330;PMS5003;34067;39.548;-76.088;2023-05-07T05:05:38;12;12;
31330;PMS5003;34067;39.548;-76.088;2023-05-07T05:08:06;10;10;
31330;PMS5003;34067;39.548;-76.088;2023-05-07T05:10:33;11;10;
31330;PMS5003;34067;39.548;-76.088;2023-05-07T05:13:01;13;13;
31330;PMS5003;34067;39.548;-76.088;2023-05-07T05:15:29;12;11;
31330;PMS5003;34067;39.548;-76.088;2023-05-07T05:17:58;13;11;
31330;PMS5003;34067;39.548;-76.088;2023-05-07T05:20:25;11;11;
31330;PMS5003;34067;39.548;-76.088;2023-05-07T05:22:54;12;12;
31330;PMS5003;34067;39.548;-76.088;2023-05-07T05:25:22;13;12;
31330;PMS5003;34067;39.548;-76.088;2023-05-07T05:27:50;11;11;
31330;PMS5003;34067;39.548;-76.088;2023-05-07T05:30:18;11;9;
31330;PMS5003;34067;39.548;-76.088;2023-05-07T05:32:46;10;10;
31330;PMS5003;34067;39.548;-76.088;2023-05-07T05:35:14;11;11;
31330;PMS5003;34067;39.548;-76.088;2023-05-07T05:37:42;12;12;
31330;PMS5003;34067;39.548;-76.088;2023-05-07T05:40:10;11;11;
31330;PMS5003;34067;39.548;-76.088;2023-05-07T05:42:39;11;11;
31330;PMS5003;34067;39.548;-76.088;2023-05-07T05:45:08;12;12;
31330;PMS5003;34067;39.548;-76.088;2023-05-07T05:47:37;14;13;
31330;PMS5003;34067;39.548;-76.088;2023-05-07T05:50:05;13;13;
31330;PMS5003;34067;39.548;-76.088;2023-05-07T05:52:34;13;13;
31330;PMS5003;34067;39.548;-76.088;2023-05-07T05:55:03;14;14;
31330;PMS5003;34067;39.548;-76.088;2023-05-07T05:57:31;14;14;
31330;PMS5003;34067;39.548;-76.088;2023-05-07T06:00:00;14;13;
31330;PMS5003;34067;39.548;-76.088;2023-05-07T06:02:28;14;13;
31330;PMS5003;34067;39.548;-76.088;2023-05-07T06:04:56;12;11;
31330;PMS5003;34067;39.548;-76.088;2023-05-07T06:07:25;14;14;
31330;PMS5003;34067;39.548;-76.088;2023-05-07T06:09:52;13;13;
31330;PMS5003;34067;39.548;-76.088;2023-05-07T06:12:21;15;14;
31330;PMS5003;34067;39.548;-76.088;2023-05-07T06:14:49;14;13;
31330;PMS5003;34067;39.548;-76.088;2023-05-07T06:17:17;15;13;
31330;PMS5003;34067;39.548;-76.088;2023-05-07T06:19:45;12;12;
31330;PMS5003;34067;39.548;-76.088;2023-05-07T06:22:13;14;13;
31330;PMS5003;34067;39.548;-76.088;2023-05-07T06:24:41;13;12;
31330;PMS5003;34067;39.548;-76.088;2023-05-07T06:27:10;15;14;
31330;PMS5003;34067;39.548;-76.088;2023-05-07T06:29:37;11;11;
31330;PMS5003;34067;39.548;-76.088;2023-05-07T06:32:06;14;13;
31330;PMS5003;34067;39.548;-76.088;2023-05-07T06:34:35;16;14;
31330;PMS5003;34067;39.548;-76.088;2023-05-07T06:37:03;13;13;
31330;PMS5003;34067;39.548;-76.088;2023-05-07T06:39:31;13;13;
31330;PMS5003;34067;39.548;-76.088;2023-05-07T06:41:59;11;11;
31330;PMS5003;34067;39.548;-76.088;2023-05-07T06:44:27;15;13;
31330;PMS5003;34067;39.548;-76.088;2023-05-07T06:46:54;14;13;
31330;PMS5003;34067;39.548;-76.088;2023-05-07T06:49:23;13;11;
31330;PMS5003;34067;39.548;-76.088;2023-05-07T06:51:51;13;13;
31330;PMS5003;34067;39.548;-76.088;2023-05-07T06:54:18;14;12;
31330;PMS5003;34067;39.548;-76.088;2023-05-07T06:56:47;13;12;
31330;PMS5003;34067;39.548;-76.088;2023-05-07T06:59:15;16;15;
31330;PMS5003;34067;39.548;-76.088;2023-05-07T07:01:43;12;12;
31330;PMS5003;34067;39.548;-76.088;2023-05-07T07:04:11;13;13;
31330;PMS5003;34067;39.548;-76.088;2023-05-07T07:06:39;14;13;
31330;PMS5003;34067;39.548;-76.088;2023-05-07T07:09:08;13;13;
31330;PMS5003;34067;39.548;-76.088;2023-05-07T07:11:36;15;14;
31330;PMS5003;34067;39.548;-76.088;2023-05-07T07:14:04;13;11;
31330;PMS5003;34067;39.548;-76.088;2023-05-07T07:16:32;14;14;
31330;PMS5003;34067;39.548;-76.088;2023-05-07T07:19:00;14;13;
31330;PMS5003;34067;39.548;-76.088;2023-05-07T07:21:28;16;14;
31330;PMS5003;34067;39.548;-76.088;2023-05-07T07:23:56;15;15;
31330;PMS5003;34067;39.548;-76.088;2023-05-07T07:26:25;17;16;
31330;PMS5003;34067;39.548;-76.088;2023-05-07T07:28:53;16;16;
31330;PMS5003;34067;39.548;-76.088;2023-05-07T07:31:21;16;16;
31330;PMS5003;34067;39.548;-76.088;2023-05-07T07:33:48;15;15;
31330;PMS5003;34067;39.548;-76.088;2023-05-07T07:36:16;16;16;
31330;PMS5003;34067;39.548;-76.088;2023-05-07T07:38:44;14;14;
31330;PMS5003;34067;39.548;-76.088;2023-05-07T07:41:12;16;15;
31330;PMS5003;34067;39.548;-76.088;2023-05-07T07:43:41;16;15;
31330;PMS5003;34067;39.548;-76.088;2023-05-07T07:46:09;18;16;
31330;PMS5003;34067;39.548;-76.088;2023-05-07T07:48:37;15;15;
31330;PMS5003;34067;39.548;-76.088;2023-05-07T07:51:05;16;16;
31330;PMS5003;34067;39.548;-76.088;2023-05-07T07:53:33;16;15;
31330;PMS5003;34067;39.548;-76.088;2023-05-07T07:56:02;16;15;
31330;PMS5003;34067;39.548;-76.088;2023-05-07T07:58:29;16;16;
31330;PMS5003;34067;39.548;-76.088;2023-05-07T08:00:58;17;16;
31330;PMS5003;34067;39.548;-76.088;2023-05-07T08:03:26;16;16;
31330;PMS5003;34067;39.548;-76.088;2023-05-07T08:05:54;18;16;
31330;PMS5003;34067;39.548;-76.088;2023-05-07T08:08:22;15;15;
31330;PMS5003;34067;39.548;-76.088;2023-05-07T08:10:50;16;15;
31330;PMS5003;34067;39.548;-76.088;2023-05-07T08:13:18;16;15;
31330;PMS5003;34067;39.548;-76.088;2023-05-07T08:15:46;15;15;
31330;PMS5003;34067;39.548;-76.088;2023-05-07T08:18:14;19;18;
31330;PMS5003;34067;39.548;-76.088;2023-05-07T08:20:42;16;16;
31330;PMS5003;34067;39.548;-76.088;2023-05-07T08:23:10;18;17;
31330;PMS5003;34067;39.548;-76.088;2023-05-07T08:25:39;17;17;
31330;PMS5003;34067;39.548;-76.088;2023-05-07T08:28:07;20;20;
31330;PMS5003;34067;39.548;-76.088;2023-05-07T08:30:36;19;17;
31330;PMS5003;34067;39.548;-76.088;2023-05-07T08:33:04;17;16;
31330;PMS5003;34067;39.548;-76.088;2023-05-07T08:35:31;19;17;
31330;PMS5003;34067;39.548;-76.088;2023-05-07T08:37:59;19;18;
31330;PMS5003;34067;39.548;-76.088;2023-05-07T08:40:27;16;16;
31330;PMS5003;34067;39.548;-76.088;2023-05-07T08:42:55;19;17;
31330;PMS5003;34067;39.548;-76.088;2023-05-07T08:45:24;20;19;
31330;PMS5003;34067;39.548;-76.088;2023-05-07T08:47:55;17;16;
31330;PMS5003;34067;39.548;-76.088;2023-05-07T08:50:26;24;18;
31330;PMS5003;34067;39.548;-76.088;2023-05-07T08:52:54;17;17;
31330;PMS5003;34067;39.548;-76.088;2023-05-07T08:55:23;18;18;
31330;PMS5003;34067;39.548;-76.088;2023-05-07T08:57:51;20;19;
31330;PMS5003;34067;39.548;-76.088;2023-05-07T09:00:19;22;21;
31330;PMS5003;34067;39.548;-76.088;2023-05-07T09:02:47;19;18;
31330;PMS5003;34067;39.548;-76.088;2023-05-07T09:05:16;19;17;
31330;PMS5003;34067;39.548;-76.088;2023-05-07T09:07:43;21;20;
31330;PMS5003;34067;39.548;-76.088;2023-05-07T09:10:12;22;21;
31330;PMS5003;34067;39.548;-76.088;2023-05-07T09:12:40;18;18;
31330;PMS5003;34067;39.548;-76.088;2023-05-07T09:15:08;17;16;
31330;PMS5003;34067;39.548;-76.088;2023-05-07T09:17:36;19;18;
31330;PMS5003;34067;39.548;-76.088;2023-05-07T09:20:05;16;16;
31330;PMS5003;34067;39.548;-76.088;2023-05-07T09:22:34;20;19;
31330;PMS5003;34067;39.548;-76.088;2023-05-07T09:25:03;19;19;
31330;PMS5003;34067;39.548;-76.088;2023-05-07T09:27:33;21;21;
31330;PMS5003;34067;39.548;-76.088;2023-05-07T09:30:03;25;23;
31330;PMS5003;34067;39.548;-76.088;2023-05-07T09:32:33;20;19;
31330;PMS5003;34067;39.548;-76.088;2023-05-07T09:35:02;18;17;
31330;PMS5003;34067;39.548;-76.088;2023-05-07T09:37:30;20;20;
31330;PMS5003;34067;39.548;-76.088;2023-05-07T09:39:58;21;21;
31330;PMS5003;34067;39.548;-76.088;2023-05-07T09:42:27;22;20;
31330;PMS5003;34067;39.548;-76.088;2023-05-07T09:44:55;24;23;
31330;PMS5003;34067;39.548;-76.088;2023-05-07T09:47:23;23;20;
31330;PMS5003;34067;39.548;-76.088;2023-05-07T09:49:56;19;18;
31330;PMS5003;34067;39.548;-76.088;2023-05-07T09:52:26;19;19;
31330;PMS5003;34067;39.548;-76.088;2023-05-07T09:54:54;17;17;
31330;PMS5003;34067;39.548;-76.088;2023-05-07T09:57:24;21;19;
31330;PMS5003;34067;39.548;-76.088;2023-05-07T09:59:54;18;17;
31330;PMS5003;34067;39.548;-76.088;2023-05-07T10:02:23;20;19;
31330;PMS5003;34067;39.548;-76.088;2023-05-07T10:04:55;19;18;
31330;PMS5003;34067;39.548;-76.088;2023-05-07T10:07:24;19;19;
31330;PMS5003;34067;39.548;-76.088;2023-05-07T10:09:53;19;18;
31330;PMS5003;34067;39.548;-76.088;2023-05-07T10:12:22;17;16;
31330;PMS5003;34067;39.548;-76.088;2023-05-07T10:14:50;19;19;
31330;PMS5003;34067;39.548;-76.088;2023-05-07T10:17:21;17;15;
31330;PMS5003;34067;39.548;-76.088;2023-05-07T10:19:51;18;18;
31330;PMS5003;34067;39.548;-76.088;2023-05-07T10:22:21;18;17;
31330;PMS5003;34067;39.548;-76.088;2023-05-07T10:24:51;20;19;
31330;PMS5003;34067;39.548;-76.088;2023-05-07T10:27:20;18;17;
31330;PMS5003;34067;39.548;-76.088;2023-05-07T10:29:51;17;17;
31330;PMS5003;34067;39.548;-76.088;2023-05-07T10:32:35;19;18;
31330;PMS5003;34067;39.548;-76.088;2023-05-07T10:35:09;15;15;
31330;PMS5003;34067;39.548;-76.088;2023-05-07T10:37:42;17;17;
31330;PMS5003;34067;39.548;-76.088;2023-05-07T10:40:11;16;16;
31330;PMS5003;34067;39.548;-76.088;2023-05-07T10:42:52;18;18;
31330;PMS5003;34067;39.548;-76.088;2023-05-07T10:45:21;18;18;
31330;PMS5003;34067;39.548;-76.088;2023-05-07T10:48:08;18;17;
31330;PMS5003;34067;39.548;-76.088;2023-05-07T10:50:37;18;18;
31330;PMS5003;34067;39.548;-76.088;2023-05-07T10:53:23;19;17;
31330;PMS5003;34067;39.548;-76.088;2023-05-07T10:55:52;46;46;
31330;PMS5003;34067;39.548;-76.088;2023-05-07T10:58:52;27;25;
31330;PMS5003;34067;39.548;-76.088;2023-05-07T11:01:51;19;18;
31330;PMS5003;34067;39.548;-76.088;2023-05-07T11:04:20;17;17;
31330;PMS5003;34067;39.548;-76.088;2023-05-07T11:07:09;17;16;
31330;PMS5003;34067;39.548;-76.088;2023-05-07T11:09:57;36;34;
31330;PMS5003;34067;39.548;-76.088;2023-05-07T11:12:59;17;16;
31330;PMS5003;34067;39.548;-76.088;2023-05-07T11:15:35;21;20;
31330;PMS5003;34067;39.548;-76.088;2023-05-07T11:18:06;25;22;
31330;PMS5003;34067;39.548;-76.088;2023-05-07T11:20:50;24;24;
31330;PMS5003;34067;39.548;-76.088;2023-05-07T11:24:28;20;19;
31330;PMS5003;34067;39.548;-76.088;2023-05-07T11:26:56;17;15;
31330;PMS5003;34067;39.548;-76.088;2023-05-07T11:29:24;19;19;
31330;PMS5003;34067;39.548;-76.088;2023-05-07T11:31:54;16;16;
31330;PMS5003;34067;39.548;-76.088;2023-05-07T11:34:23;19;18;
31330;PMS5003;34067;39.548;-76.088;2023-05-07T11:36:53;17;17;
31330;PMS5003;34067;39.548;-76.088;2023-05-07T11:39:26;19;19;
31330;PMS5003;34067;39.548;-76.088;2023-05-07T11:41:56;21;20;
31330;PMS5003;34067;39.548;-76.088;2023-05-07T11:44:24;21;20;
31330;PMS5003;34067;39.548;-76.088;2023-05-07T11:47:05;19;19;
31330;PMS5003;34067;39.548;-76.088;2023-05-07T11:49:34;20;20;
31330;PMS5003;34067;39.548;-76.088;2023-05-07T11:52:02;17;15;
31330;PMS5003;34067;39.548;-76.088;2023-05-07T11:54:35;20;19;
31330;PMS5003;34067;39.548;-76.088;2023-05-07T11:57:03;17;17;
31330;PMS5003;34067;39.548;-76.088;2023-05-07T11:59:38;17;16;
31330;PMS5003;34067;39.548;-76.088;2023-05-07T12:02:05;19;18;
31330;PMS5003;34067;39.548;-76.088;2023-05-07T12:04:33;18;17;
31330;PMS5003;34067;39.548;-76.088;2023-05-07T12:07:01;17;17;
31330;PMS5003;34067;39.548;-76.088;2023-05-07T12:09:31;19;17;
31330;PMS5003;34067;39.548;-76.088;2023-05-07T12:12:03;16;15;
31330;PMS5003;34067;39.548;-76.088;2023-05-07T12:14:31;23;23;
31330;PMS5003;34067;39.548;-76.088;2023-05-07T12:16:59;18;18;
31330;PMS5003;34067;39.548;-76.088;2023-05-07T12:19:28;16;16;
31330;PMS5003;34067;39.548;-76.088;2023-05-07T12:21:55;21;20;
31330;PMS5003;34067;39.548;-76.088;2023-05-07T12:24:24;19;19;
31330;PMS5003;34067;39.548;-76.088;2023-05-07T12:26:52;20;19;
31330;PMS5003;34067;39.548;-76.088;2023-05-07T12:29:21;22;21;
31330;PMS5003;34067;39.548;-76.088;2023-05-07T12:31:49;21;19;
31330;PMS5003;34067;39.548;-76.088;2023-05-07T12:34:17;17;17;
31330;PMS5003;34067;39.548;-76.088;2023-05-07T12:36:45;18;17;
31330;PMS5003;34067;39.548;-76.088;2023-05-07T12:39:15;18;18;
31330;PMS5003;34067;39.548;-76.088;2023-05-07T12:41:59;19;18;
31330;PMS5003;34067;39.548;-76.088;2023-05-07T12:44:29;17;16;
31330;PMS5003;34067;39.548;-76.088;2023-05-07T12:46:58;18;16;
31330;PMS5003;34067;39.548;-76.088;2023-05-07T12:49:29;16;16;
31330;PMS5003;34067;39.548;-76.088;2023-05-07T12:51:57;20;17;
31330;PMS5003;34067;39.548;-76.088;2023-05-07T12:54:29;20;20;
31330;PMS5003;34067;39.548;-76.088;2023-05-07T12:57:00;18;17;
31330;PMS5003;34067;39.548;-76.088;2023-05-07T12:59:33;19;19;
31330;PMS5003;34067;39.548;-76.088;2023-05-07T13:02:02;27;26;
31330;PMS5003;34067;39.548;-76.088;2023-05-07T13:04:30;37;36;
31330;PMS5003;34067;39.548;-76.088;2023-05-07T13:06:59;56;55;
31330;PMS5003;34067;39.548;-76.088;2023-05-07T13:09:27;26;26;
31330;PMS5003;34067;39.548;-76.088;2023-05-07T13:11:55;30;29;
31330;PMS5003;34067;39.548;-76.088;2023-05-07T13:14:23;20;20;
31330;PMS5003;34067;39.548;-76.088;2023-05-07T13:16:51;19;18;
31330;PMS5003;34067;39.548;-76.088;2023-05-07T13:19:20;19;17;
31330;PMS5003;34067;39.548;-76.088;2023-05-07T13:21:48;16;15;
31330;PMS5003;34067;39.548;-76.088;2023-05-07T13:24:16;13;13;
31330;PMS5003;34067;39.548;-76.088;2023-05-07T13:26:44;14;13;
31330;PMS5003;34067;39.548;-76.088;2023-05-07T13:29:12;14;13;
31330;PMS5003;34067;39.548;-76.088;2023-05-07T13:31:40;14;12;
31330;PMS5003;34067;39.548;-76.088;2023-05-07T13:34:08;15;15;
31330;PMS5003;34067;39.548;-76.088;2023-05-07T13:36:36;13;13;
31330;PMS5003;34067;39.548;-76.088;2023-05-07T13:39:04;18;17;
31330;PMS5003;34067;39.548;-76.088;2023-05-07T13:41:32;12;12;
31330;PMS5003;34067;39.548;-76.088;2023-05-07T13:44:00;15;14;
31330;PMS5003;34067;39.548;-76.088;2023-05-07T13:46:28;13;13;
31330;PMS5003;34067;39.548;-76.088;2023-05-07T13:48:56;13;12;
31330;PMS5003;34067;39.548;-76.088;2023-05-07T13:51:23;12;12;
31330;PMS5003;34067;39.548;-76.088;2023-05-07T13:53:51;13;12;
31330;PMS5003;34067;39.548;-76.088;2023-05-07T13:56:19;12;12;
31330;PMS5003;34067;39.548;-76.088;2023-05-07T13:58:47;13;13;
31330;PMS5003;34067;39.548;-76.088;2023-05-07T14:01:15;13;11;
31330;PMS5003;34067;39.548;-76.088;2023-05-07T14:03:43;14;13;
31330;PMS5003;34067;39.548;-76.088;2023-05-07T14:06:11;14;14;
31330;PMS5003;34067;39.548;-76.088;2023-05-07T14:08:39;12;11;
31330;PMS5003;34067;39.548;-76.088;2023-05-07T14:11:07;13;13;
31330;PMS5003;34067;39.548;-76.088;2023-05-07T14:13:35;13;12;
31330;PMS5003;34067;39.548;-76.088;2023-05-07T14:16:03;42;37;
31330;PMS5003;34067;39.548;-76.088;2023-05-07T14:18:32;16;15;
31330;PMS5003;34067;39.548;-76.088;2023-05-07T14:21:00;16;15;
31330;PMS5003;34067;39.548;-76.088;2023-05-07T14:23:28;14;13;
31330;PMS5003;34067;39.548;-76.088;2023-05-07T14:25:56;11;11;
31330;PMS5003;34067;39.548;-76.088;2023-05-07T14:28:23;14;14;
31330;PMS5003;34067;39.548;-76.088;2023-05-07T14:30:51;25;24;
31330;PMS5003;34067;39.548;-76.088;2023-05-07T14:33:19;12;12;
31330;PMS5003;34067;39.548;-76.088;2023-05-07T14:35:47;11;11;
31330;PMS5003;34067;39.548;-76.088;2023-05-07T14:38:15;9;9;
31330;PMS5003;34067;39.548;-76.088;2023-05-07T14:40:43;9;8;
31330;PMS5003;34067;39.548;-76.088;2023-05-07T14:43:11;8;8;
31330;PMS5003;34067;39.548;-76.088;2023-05-07T14:45:39;8;8;
31330;PMS5003;34067;39.548;-76.088;2023-05-07T14:48:07;10;10;
31330;PMS5003;34067;39.548;-76.088;2023-05-07T14:50:35;6;6;
31330;PMS5003;34067;39.548;-76.088;2023-05-07T14:53:02;8;8;
31330;PMS5003;34067;39.548;-76.088;2023-05-07T14:55:30;6;6;
31330;PMS5003;34067;39.548;-76.088;2023-05-07T14:57:58;6;5;
31330;PMS5003;34067;39.548;-76.088;2023-05-07T15:00:26;7;7;
31330;PMS5003;34067;39.548;-76.088;2023-05-07T15:02:55;6;5;
31330;PMS5003;34067;39.548;-76.088;2023-05-07T15:05:31;7;7;
31330;PMS5003;34067;39.548;-76.088;2023-05-07T15:07:59;7;6;
31330;PMS5003;34067;39.548;-76.088;2023-05-07T15:10:27;7;7;
31330;PMS5003;34067;39.548;-76.088;2023-05-07T15:12:55;6;6;
31330;PMS5003;34067;39.548;-76.088;2023-05-07T15:15:22;7;7;
31330;PMS5003;34067;39.548;-76.088;2023-05-07T15:17:50;7;7;
31330;PMS5003;34067;39.548;-76.088;2023-05-07T15:20:18;7;7;
31330;PMS5003;34067;39.548;-76.088;2023-05-07T15:22:46;6;6;
31330;PMS5003;34067;39.548;-76.088;2023-05-07T15:25:14;6;6;
31330;PMS5003;34067;39.548;-76.088;2023-05-07T15:27:42;5;5;
31330;PMS5003;34067;39.548;-76.088;2023-05-07T15:30:10;5;5;
31330;PMS5003;34067;39.548;-76.088;2023-05-07T15:32:40;4;4;
31330;PMS5003;34067;39.548;-76.088;2023-05-07T15:35:08;7;7;
31330;PMS5003;34067;39.548;-76.088;2023-05-07T15:37:36;6;5;
31330;PMS5003;34067;39.548;-76.088;2023-05-07T15:40:05;6;6;
31330;PMS5003;34067;39.548;-76.088;2023-05-07T15:42:34;6;6;
31330;PMS5003;34067;39.548;-76.088;2023-05-07T15:45:01;8;8;
31330;PMS5003;34067;39.548;-76.088;2023-05-07T15:47:29;6;6;
31330;PMS5003;34067;39.548;-76.088;2023-05-07T15:50:00;5;5;
31330;PMS5003;34067;39.548;-76.088;2023-05-07T15:52:28;6;6;
31330;PMS5003;34067;39.548;-76.088;2023-05-07T15:54:56;8;8;
31330;PMS5003;34067;39.548;-76.088;2023-05-07T15:57:23;6;6;
31330;PMS5003;34067;39.548;-76.088;2023-05-07T15:59:51;7;7;
31330;PMS5003;34067;39.548;-76.088;2023-05-07T16:02:19;8;8;
31330;PMS5003;34067;39.548;-76.088;2023-05-07T16:04:47;5;4;
31330;PMS5003;34067;39.548;-76.088;2023-05-07T16:07:15;6;6;